Slade, KY

7:56 PM EST on December 24, 2014 (GMT -0500)
RAWS KOOMER KY US | Change Station
CLOSE
Current Station
Personal Weather Station
Location: Pine Ridge, KY
Elevation: 1299 ft
Nearby Weather Stations
Active Advisory: Wind Advisory Active Notice: Record Report, Local Storm Report

Elev 1299 ft 37.78 °N, 83.63 °W | Updated 47 minutes ago

Overcast
Overcast
41 °F
Feels Like 35 °F
N
10
Wind Variable Wind from West
Gusts 32.0 mph

Today
High -- | Low -- °F
--% Chance of Precip.
Yesterday
High -- | Low -- °F
Precip. -- in
7:47 AM 5:20 PM
Waxing Crescent, 12% visible
Pressure 29.66 in
Visibility 10.0 miles
Clouds Mostly Cloudy 1300 ft
Mostly Cloudy 2100 ft
Overcast 2800 ft
Windchill 35 °F
Dew Point 39 °F
Humidity 94%
Rainfall 0.95 in
Snow Depth Not available.
UV 0 out of 12
Pollen .10 out of 12
Air Quality Not available.
Flu Activity Not available.
METAR KJKL 242353Z AUTO 23007G15KT 10SM -RA BKN013 BKN021 OVC028 07/04 A2967 RMK AO2 SLP043 P0001 60003 T00670044 10189 20067 51073

More Conditions Fewer Conditions

Pressure 29.66 in
Visibility 10.0 miles
Clouds Mostly Cloudy 1300 ft
Mostly Cloudy 2100 ft
Overcast 2800 ft
Windchill 35 °F
Dew Point 39 °F
Humidity 94%
Rainfall 0.95 in
Snow Depth Not available.
UV 0 out of 12
Pollen .10 out of 12
Air Quality Not available.
Flu Activity Not available.
METAR KJKL 242353Z AUTO 23007G15KT 10SM -RA BKN013 BKN021 OVC028 07/04 A2967 RMK AO2 SLP043 P0001 60003 T00670044 10189 20067 51073

More Conditions Fewer Conditions

10-Day Weather Forecast

Almanac

Astronomy

Dec. 24, 2014 Rise Set
Actual Time
Civil Twilight
Nautical Twilight
Astronomical Twilight
Moon
Length of Visible Light
Length of Day
Tomorrow will be .
, % of the Moon is Illuminated

Today's Extremes

State Highs State Lows

Community

WunderPhotos

Upload Photos

1,780,194 photos uploaded!

WunderBlogs® & News

Nearby

Air Quality

  Air Quality AQ Index Pollutant
Not available.

Snow Depth

Station Depth Elevation

Earthquake Activity

City Distance Mag. Time & Date
Minimum magnitude displayed is 2.5.

Coastal Water Temperatures

Place Temperature

Nearby Weather Stations